createdAt,value
2022-08-17T00:01:31.396Z,28.07
2022-08-17T00:04:19.102Z,25.20
2022-08-17T00:06:45.827Z,28.67
2022-08-17T00:09:18.438Z,28.20
2022-08-17T00:12:43.683Z,26.25
2022-08-17T00:14:36.225Z,26.00
2022-08-17T00:17:06.475Z,26.40
2022-08-17T00:19:33.177Z,26.95
2022-08-17T00:22:32.942Z,28.40
2022-08-17T00:24:49.949Z,26.63
2022-08-17T00:27:17.266Z,26.33
2022-08-17T00:29:45.703Z,28.17
2022-08-17T00:33:22.742Z,28.33
2022-08-17T00:35:00.203Z,27.45
2022-08-17T00:37:26.827Z,27.83
2022-08-17T00:39:53.450Z,28.20
2022-08-17T00:42:20.108Z,27.38
2022-08-17T00:44:46.962Z,27.05
2022-08-17T00:47:13.519Z,26.58
2022-08-17T00:49:40.166Z,27.75
2022-08-17T00:52:16.770Z,26.67
2022-08-17T00:54:46.971Z,27.30
2022-08-17T00:57:41.674Z,28.92
2022-08-17T01:00:15.453Z,26.33
2022-08-17T01:02:46.090Z,26.42
2022-08-17T01:05:17.210Z,25.33
2022-08-17T01:07:47.876Z,27.55
2022-08-17T01:11:00.679Z,27.83
2022-08-17T01:13:04.276Z,25.27
2022-08-17T01:15:35.046Z,26.60
2022-08-17T01:18:02.443Z,25.10
2022-08-17T01:20:29.597Z,26.08
2022-08-17T01:22:56.195Z,26.63
2022-08-17T01:25:22.941Z,25.48
2022-08-17T01:27:49.985Z,25.20
2022-08-17T01:30:56.662Z,24.40
2022-08-17T01:33:04.422Z,24.02
2022-08-17T01:35:31.319Z,23.80
2022-08-17T01:37:58.049Z,22.92
2022-08-17T01:40:34.508Z,23.52
2022-08-17T01:43:11.323Z,22.40
2022-08-17T01:45:44.207Z,21.45
2022-08-17T01:48:12.096Z,21.52
2022-08-17T01:50:40.644Z,27.83
2022-08-17T01:53:16.123Z,28.55
2022-08-17T01:56:07.141Z,30.87
2022-08-17T01:58:35.311Z,29.20
2022-08-17T02:01:03.781Z,29.42
2022-08-17T02:03:31.020Z,30.05
2022-08-17T02:05:57.763Z,32.03
2022-08-17T02:08:37.033Z,31.23
2022-08-17T02:11:11.495Z,33.20
2022-08-17T02:13:38.945Z,32.53
2022-08-17T02:16:05.658Z,34.28
2022-08-17T02:18:32.417Z,34.47
2022-08-17T02:20:59.981Z,33.17
2022-08-17T02:23:30.528Z,34.92
2022-08-17T02:25:59.813Z,36.65
2022-08-17T02:28:26.585Z,34.42
2022-08-17T02:31:01.562Z,35.75
2022-08-17T02:33:42.502Z,36.43
2022-08-17T02:36:12.207Z,37.85
2022-08-17T02:38:40.644Z,38.05
2022-08-17T02:41:07.572Z,37.50
2022-08-17T02:43:34.180Z,39.75
2022-08-17T02:46:00.853Z,37.30
2022-08-17T02:48:31.015Z,40.00
2022-08-17T02:50:58.125Z,36.72
2022-08-17T02:53:24.758Z,40.47
2022-08-17T02:55:52.749Z,40.65
2022-08-17T02:58:29.572Z,36.97
2022-08-17T03:01:03.372Z,37.78
2022-08-17T03:03:30.196Z,37.78
2022-08-17T03:05:56.714Z,37.78
2022-08-17T03:08:23.462Z,38.85
2022-08-17T03:10:50.532Z,38.10
2022-08-17T03:13:17.966Z,36.85
2022-08-17T03:15:46.842Z,37.80
2022-08-17T03:18:19.213Z,39.83
2022-08-17T03:20:55.658Z,37.33
2022-08-17T03:23:24.179Z,38.53
2022-08-17T03:25:53.827Z,36.80
2022-08-17T03:28:21.785Z,36.45
2022-08-17T03:30:48.819Z,37.70
2022-08-17T03:33:16.256Z,38.08
2022-08-17T03:35:43.388Z,36.23
2022-08-17T03:38:11.807Z,37.88
2022-08-17T03:40:56.909Z,36.83
2022-08-17T03:43:25.083Z,40.00
2022-08-17T03:46:29.040Z,38.60
2022-08-17T03:49:32.444Z,36.87
2022-08-17T03:52:17.797Z,35.85
2022-08-17T03:55:04.091Z,34.95
2022-08-17T03:57:31.109Z,33.88
2022-08-17T03:59:58.133Z,34.30
2022-08-17T04:02:29.177Z,33.00
2022-08-17T04:04:56.270Z,35.72
2022-08-17T04:07:25.967Z,36.97
2022-08-17T04:09:52.529Z,35.72
2022-08-17T04:12:21.593Z,38.25
2022-08-17T04:14:52.855Z,37.27
2022-08-17T04:17:27.105Z,38.15
2022-08-17T04:19:55.201Z,36.15
2022-08-17T04:22:31.074Z,36.65
2022-08-17T04:25:15.044Z,35.55
2022-08-17T04:27:41.612Z,38.50
2022-08-17T04:30:08.888Z,37.17
2022-08-17T04:33:04.632Z,37.40
2022-08-17T04:35:41.239Z,37.72
2022-08-17T04:38:10.215Z,37.33
2022-08-17T04:40:55.917Z,36.93
2022-08-17T04:43:25.192Z,37.63
2022-08-17T04:46:00.916Z,37.72
2022-08-17T04:48:36.487Z,36.97
2022-08-17T04:51:13.549Z,37.95
2022-08-17T04:53:42.692Z,37.97
2022-08-17T04:56:16.253Z,38.30
2022-08-17T04:58:45.864Z,35.97
2022-08-17T05:01:12.741Z,37.30
2022-08-17T05:03:39.408Z,38.78
2022-08-17T05:06:06.202Z,37.17
2022-08-17T05:08:32.957Z,37.08
2022-08-17T05:11:00.386Z,38.05
2022-08-17T05:13:29.700Z,32.85
2022-08-17T05:16:02.014Z,33.22
2022-08-17T05:18:29.470Z,32.83
2022-08-17T05:20:57.591Z,31.63
2022-08-17T05:23:27.125Z,31.40
2022-08-17T05:26:03.801Z,30.02
2022-08-17T05:28:33.853Z,29.60
2022-08-17T05:31:03.422Z,28.50
2022-08-17T05:33:36.483Z,26.13
2022-08-17T05:36:05.434Z,24.40
2022-08-17T05:38:32.861Z,23.08
2022-08-17T05:41:01.954Z,24.00
2022-08-17T05:43:32.859Z,23.23
2022-08-17T05:46:17.918Z,22.33
2022-08-17T05:48:50.929Z,22.27
2022-08-17T05:51:35.486Z,21.48
2022-08-17T05:54:26.667Z,21.65
2022-08-17T05:57:39.949Z,20.97
2022-08-17T06:00:30.267Z,20.92
2022-08-17T06:03:25.988Z,21.73
2022-08-17T06:06:31.218Z,20.38
2022-08-17T06:09:34.053Z,20.42
2022-08-17T06:12:27.358Z,19.17
2022-08-17T06:15:03.793Z,19.85
2022-08-17T06:17:31.311Z,19.40
2022-08-17T06:20:03.294Z,19.23
2022-08-17T06:22:36.085Z,19.42
2022-08-17T06:25:10.007Z,17.87
2022-08-17T06:27:47.011Z,19.13
2022-08-17T06:30:26.765Z,19.20
2022-08-17T06:32:59.574Z,19.30
2022-08-17T06:35:44.464Z,19.27
2022-08-17T06:38:21.862Z,18.67
2022-08-17T06:41:13.103Z,18.50
2022-08-17T06:44:10.289Z,18.17
2022-08-17T06:46:41.071Z,18.15
2022-08-17T06:49:22.000Z,16.73
2022-08-17T06:52:42.293Z,15.80
2022-08-17T06:55:07.693Z,17.23
2022-08-17T06:57:52.591Z,16.77
2022-08-17T07:00:28.116Z,16.73
2022-08-17T07:03:20.873Z,16.10
2022-08-17T07:06:08.409Z,18.07
2022-08-17T07:08:38.154Z,18.65
2022-08-17T07:11:43.822Z,19.63
2022-08-17T07:14:23.708Z,18.48
2022-08-17T07:16:56.487Z,19.23
2022-08-17T07:19:31.596Z,18.67
2022-08-17T07:22:57.630Z,18.38
2022-08-17T07:25:25.506Z,18.17
2022-08-17T07:27:55.945Z,16.77
2022-08-17T07:30:29.754Z,16.23
2022-08-17T07:33:13.705Z,17.17
2022-08-17T07:35:44.603Z,16.45
2022-08-17T07:38:25.506Z,18.13
2022-08-17T07:41:05.396Z,17.30
2022-08-17T07:43:41.207Z,16.83
2022-08-17T07:46:47.980Z,15.77
2022-08-17T07:49:14.488Z,16.52
2022-08-17T07:51:43.919Z,16.73
2022-08-17T07:54:18.747Z,14.40
2022-08-17T07:56:57.145Z,15.68
2022-08-17T07:59:37.703Z,14.13
2022-08-17T08:02:33.881Z,14.02
2022-08-17T08:05:02.971Z,15.50
2022-08-17T08:07:40.204Z,15.35
2022-08-17T08:10:28.300Z,15.18
2022-08-17T08:13:14.475Z,15.07
2022-08-17T08:15:54.123Z,15.93
2022-08-17T08:18:54.005Z,16.35
2022-08-17T08:21:24.375Z,15.27
2022-08-17T08:24:15.679Z,15.98
2022-08-17T08:27:27.164Z,15.37
2022-08-17T08:30:14.412Z,15.73
2022-08-17T08:32:46.093Z,15.27
2022-08-17T08:35:33.048Z,15.27
2022-08-17T08:38:14.829Z,15.73
2022-08-17T08:41:22.320Z,13.80
2022-08-17T08:44:13.771Z,13.25
2022-08-17T08:47:27.691Z,13.70
2022-08-17T08:50:31.797Z,13.55
2022-08-17T08:53:42.384Z,13.85
2022-08-17T08:56:38.374Z,12.97
2022-08-17T08:59:22.656Z,13.57
2022-08-17T09:02:09.668Z,12.60
2022-08-17T09:05:10.323Z,13.70
2022-08-17T09:07:54.737Z,13.10
2022-08-17T09:10:40.603Z,12.03
2022-08-17T09:13:22.670Z,11.27
2022-08-17T09:15:59.188Z,10.82
2022-08-17T09:19:01.609Z,11.27
2022-08-17T09:21:38.103Z,9.18
2022-08-17T09:24:40.122Z,9.57
2022-08-17T09:27:21.992Z,10.20
2022-08-17T09:30:00.379Z,9.40
2022-08-17T09:32:43.979Z,9.10
2022-08-17T09:35:19.418Z,9.20
2022-08-17T09:38:17.361Z,8.83
2022-08-17T09:40:59.656Z,9.95
2022-08-17T09:43:26.124Z,10.68
2022-08-17T09:45:58.568Z,9.82
2022-08-17T09:48:48.289Z,9.38
2022-08-17T09:51:18.006Z,8.80
2022-08-17T09:53:44.941Z,9.73
2022-08-17T09:56:24.018Z,10.10
2022-08-17T09:59:38.893Z,10.10
2022-08-17T10:02:42.027Z,9.88
2022-08-17T10:05:21.993Z,9.37
2022-08-17T10:07:59.328Z,9.73
2022-08-17T10:10:33.487Z,9.38
2022-08-17T10:13:10.925Z,9.18
2022-08-17T10:16:19.401Z,10.73
2022-08-17T10:19:08.094Z,9.77
2022-08-17T10:22:00.780Z,10.75
2022-08-17T10:25:02.041Z,11.20
2022-08-17T10:27:48.890Z,11.73
2022-08-17T10:30:18.855Z,12.48
2022-08-17T10:32:50.301Z,14.43
2022-08-17T10:35:34.144Z,14.88
2022-08-17T10:38:46.030Z,15.95
2022-08-17T10:41:38.216Z,14.77
2022-08-17T10:44:39.851Z,15.95
2022-08-17T10:47:15.085Z,15.50
2022-08-17T10:49:47.759Z,16.02
2022-08-17T10:52:20.651Z,17.00
2022-08-17T10:54:51.811Z,15.70
2022-08-17T10:57:33.827Z,17.23
2022-08-17T11:00:38.076Z,15.63
2022-08-17T11:03:19.677Z,15.93
2022-08-17T11:06:06.827Z,16.80
2022-08-17T11:09:19.847Z,16.70
2022-08-17T11:12:07.583Z,15.88
2022-08-17T11:14:58.463Z,16.63
2022-08-17T11:18:07.183Z,15.95
2022-08-17T11:21:15.976Z,16.70
2022-08-17T11:23:54.354Z,16.48
2022-08-17T11:26:25.907Z,14.20
2022-08-17T11:28:59.604Z,16.83
2022-08-17T11:31:38.487Z,15.45
2022-08-17T11:34:23.207Z,14.85
2022-08-17T11:36:52.387Z,14.38
2022-08-17T11:39:36.301Z,13.23
2022-08-17T11:42:16.276Z,12.67
2022-08-17T11:45:31.860Z,12.85
2022-08-17T11:48:35.285Z,13.63
2022-08-17T11:51:35.899Z,14.02
2022-08-17T11:54:34.778Z,12.50
2022-08-17T11:57:27.406Z,13.57
2022-08-17T12:00:11.095Z,14.48
2022-08-17T12:02:48.292Z,14.25
2022-08-17T12:05:17.068Z,13.63
2022-08-17T12:07:49.291Z,15.40
2022-08-17T12:10:24.027Z,14.67
2022-08-17T12:12:54.066Z,14.63
2022-08-17T12:15:29.867Z,15.45
2022-08-17T12:17:57.466Z,15.50
2022-08-17T12:20:33.522Z,16.55
2022-08-17T12:23:32.637Z,14.57
2022-08-17T12:26:14.768Z,17.20
2022-08-17T12:28:50.294Z,16.50
2022-08-17T12:31:24.681Z,17.13
2022-08-17T12:33:51.903Z,16.58
2022-08-17T12:36:26.485Z,16.80
2022-08-17T12:39:14.170Z,16.73
2022-08-17T12:41:53.185Z,16.67
2022-08-17T12:44:22.229Z,15.73
2022-08-17T12:46:51.557Z,15.18
2022-08-17T12:49:32.370Z,15.23
2022-08-17T12:52:19.939Z,14.48
2022-08-17T12:55:01.849Z,13.88
2022-08-17T12:57:48.822Z,12.98
2022-08-17T13:00:32.267Z,12.98
2022-08-17T13:03:07.704Z,13.27
2022-08-17T13:05:35.666Z,13.32
2022-08-17T13:08:14.269Z,14.02
2022-08-17T13:10:40.823Z,13.88
2022-08-17T13:13:29.779Z,14.57
2022-08-17T13:15:59.706Z,14.87
2022-08-17T13:18:41.514Z,13.70
2022-08-17T13:21:19.380Z,14.65
2022-08-17T13:24:03.720Z,14.00
2022-08-17T13:26:37.075Z,14.38
2022-08-17T13:29:24.108Z,15.33
2022-08-17T13:31:56.607Z,14.48
2022-08-17T13:35:07.747Z,15.00
2022-08-17T13:37:34.570Z,16.20
2022-08-17T13:40:10.078Z,16.40
2022-08-17T13:42:51.880Z,15.43
2022-08-17T13:45:35.665Z,16.15
2022-08-17T13:48:13.635Z,15.52
2022-08-17T13:50:56.155Z,15.98
2022-08-17T13:53:25.803Z,16.30
2022-08-17T13:55:59.375Z,14.53
2022-08-17T13:58:27.744Z,15.30
2022-08-17T14:00:56.245Z,14.75
2022-08-17T14:03:24.351Z,14.85
2022-08-17T14:05:52.391Z,16.38
2022-08-17T14:08:20.888Z,15.13
2022-08-17T14:10:57.871Z,15.77
2022-08-17T14:13:24.452Z,15.32
2022-08-17T14:15:55.963Z,14.70
2022-08-17T14:18:55.715Z,15.55
2022-08-17T14:21:10.093Z,15.47
2022-08-17T14:23:37.707Z,15.95
2022-08-17T14:26:04.994Z,16.35
2022-08-17T14:28:32.163Z,15.75
2022-08-17T14:31:00.783Z,15.82
2022-08-17T14:33:28.959Z,16.50
2022-08-17T14:35:57.467Z,16.73
2022-08-17T14:38:24.297Z,17.42
2022-08-17T14:40:50.958Z,16.90
2022-08-17T14:43:18.885Z,17.33
2022-08-17T14:45:45.440Z,17.53
2022-08-17T14:48:12.059Z,16.80
2022-08-17T14:50:41.588Z,17.60
2022-08-17T14:53:10.786Z,18.13
2022-08-17T14:55:39.929Z,17.50
2022-08-17T14:58:07.586Z,18.43
2022-08-17T15:00:35.445Z,18.52
2022-08-17T15:03:02.522Z,18.27
2022-08-17T15:05:33.643Z,18.55
2022-08-17T15:08:01.883Z,19.13
2022-08-17T15:10:29.879Z,20.10
2022-08-17T15:12:57.027Z,19.17
2022-08-17T15:15:23.859Z,19.08
2022-08-17T15:17:51.366Z,19.95
2022-08-17T15:20:21.375Z,20.45
2022-08-17T15:22:55.662Z,20.60
2022-08-17T15:25:24.892Z,21.55
2022-08-17T15:27:52.217Z,21.48
2022-08-17T15:30:19.567Z,21.80
2022-08-17T15:32:54.714Z,21.10
2022-08-17T15:35:28.060Z,21.87
2022-08-17T15:38:04.682Z,21.85
2022-08-17T15:40:36.584Z,21.35
2022-08-17T15:43:08.060Z,21.13
2022-08-17T15:45:35.314Z,21.60
2022-08-17T15:48:02.410Z,20.47
2022-08-17T15:50:28.994Z,20.48
2022-08-17T15:53:00.138Z,20.67
2022-08-17T15:55:29.113Z,20.77
2022-08-17T15:57:55.864Z,20.35
2022-08-17T16:00:26.064Z,21.63
2022-08-17T16:03:44.959Z,21.60
2022-08-17T16:05:41.073Z,20.70
2022-08-17T16:08:08.284Z,21.25
2022-08-17T16:10:36.067Z,19.70
2022-08-17T16:13:04.209Z,18.97
2022-08-17T16:15:33.735Z,19.90
2022-08-17T16:18:00.282Z,20.40
2022-08-17T16:20:27.459Z,18.73
2022-08-17T16:22:55.001Z,19.73
2022-08-17T16:25:38.849Z,17.93
2022-08-17T16:28:15.742Z,18.85
2022-08-17T16:30:43.254Z,19.25
2022-08-17T16:33:11.617Z,18.67
2022-08-17T16:35:38.709Z,21.35
2022-08-17T16:38:07.262Z,20.33
2022-08-17T16:40:36.153Z,19.60
2022-08-17T16:43:04.361Z,21.65
2022-08-17T16:45:36.796Z,19.48
2022-08-17T16:48:04.486Z,21.70
2022-08-17T16:50:32.168Z,21.27
2022-08-17T16:53:13.691Z,21.52
2022-08-17T16:55:40.286Z,19.58
2022-08-17T16:58:08.769Z,20.17
2022-08-17T17:00:36.697Z,19.52
2022-08-17T17:03:20.514Z,20.53
2022-08-17T17:06:28.837Z,20.15
2022-08-17T17:09:07.847Z,21.88
2022-08-17T17:11:41.728Z,21.40
2022-08-17T17:14:16.850Z,22.77
2022-08-17T17:17:06.059Z,21.07
2022-08-17T17:19:49.022Z,21.20
2022-08-17T17:22:25.672Z,21.90
2022-08-17T17:25:09.405Z,23.02
2022-08-17T17:28:07.061Z,23.92
2022-08-17T17:30:39.967Z,23.30
2022-08-17T17:33:14.149Z,21.15
2022-08-17T17:35:49.087Z,24.50
2022-08-17T17:38:22.890Z,23.90
2022-08-17T17:40:55.524Z,24.45
2022-08-17T17:43:38.991Z,22.57
2022-08-17T17:46:33.843Z,22.70
2022-08-17T17:49:01.004Z,23.17
2022-08-17T17:52:10.239Z,23.92
2022-08-17T17:54:46.757Z,23.75
2022-08-17T17:58:03.696Z,23.03
2022-08-17T18:00:44.290Z,24.30
2022-08-17T18:03:25.871Z,24.40
2022-08-17T18:05:52.667Z,24.55
2022-08-17T18:08:36.985Z,25.10
2022-08-17T18:11:24.247Z,25.23
2022-08-17T18:14:17.535Z,24.83
2022-08-17T18:16:46.383Z,24.17
2022-08-17T18:19:19.854Z,24.23
2022-08-17T18:21:53.000Z,23.80
2022-08-17T18:24:49.312Z,21.87
2022-08-17T18:27:38.298Z,23.08
2022-08-17T18:30:10.885Z,23.63
2022-08-17T18:32:46.637Z,24.08
2022-08-17T18:35:16.135Z,23.63
2022-08-17T18:37:52.649Z,23.43
2022-08-17T18:40:19.755Z,23.92
2022-08-17T18:43:08.059Z,23.38
2022-08-17T18:45:41.009Z,24.75
2022-08-17T18:48:30.218Z,24.05
2022-08-17T18:51:20.309Z,24.93
2022-08-17T18:54:15.612Z,25.35
2022-08-17T18:56:56.389Z,24.98
2022-08-17T18:59:42.078Z,25.58
2022-08-17T19:02:22.117Z,25.55
2022-08-17T19:05:10.001Z,25.10
2022-08-17T19:07:46.113Z,25.83
2022-08-17T19:10:16.540Z,26.40
2022-08-17T19:12:55.280Z,24.95
2022-08-17T19:15:34.440Z,25.27
2022-08-17T19:18:15.280Z,26.53
2022-08-17T19:20:50.918Z,25.67
2022-08-17T19:23:29.309Z,26.77
2022-08-17T19:25:59.292Z,27.35
2022-08-17T19:28:38.853Z,26.83
2022-08-17T19:31:19.331Z,26.50
2022-08-17T19:33:47.943Z,26.35
2022-08-17T19:36:25.236Z,27.42
2022-08-17T19:39:04.217Z,27.10
2022-08-17T19:41:49.107Z,26.75
2022-08-17T19:44:47.150Z,26.73
2022-08-17T19:47:54.279Z,26.00
2022-08-17T19:50:41.084Z,26.95
2022-08-17T19:53:47.841Z,28.70
2022-08-17T19:56:22.225Z,27.60
2022-08-17T19:58:56.095Z,29.63
2022-08-17T20:01:34.895Z,30.38
2022-08-17T20:04:14.306Z,28.73
2022-08-17T20:06:44.223Z,29.60
2022-08-17T20:09:35.395Z,30.33
2022-08-17T20:12:09.372Z,29.17
2022-08-17T20:14:53.502Z,28.77
2022-08-17T20:17:23.953Z,28.38
2022-08-17T20:19:53.279Z,28.60
2022-08-17T20:22:49.364Z,28.95
2022-08-17T20:25:54.982Z,26.90
2022-08-17T20:28:31.597Z,27.48
2022-08-17T20:30:59.193Z,28.60
2022-08-17T20:33:31.739Z,28.95
2022-08-17T20:36:06.185Z,28.25
2022-08-17T20:38:42.709Z,27.07
2022-08-17T20:41:16.977Z,27.55
2022-08-17T20:43:49.028Z,29.30
2022-08-17T20:46:30.716Z,25.65
2022-08-17T20:49:19.135Z,26.02
2022-08-17T20:52:00.770Z,26.30
2022-08-17T20:54:47.018Z,24.48
2022-08-17T20:57:34.419Z,24.58
2022-08-17T21:00:14.967Z,24.35
2022-08-17T21:02:47.159Z,24.63
2022-08-17T21:05:34.404Z,24.37
2022-08-17T21:08:16.165Z,23.15
2022-08-17T21:10:46.961Z,23.20
2022-08-17T21:13:13.883Z,24.10
2022-08-17T21:15:42.011Z,24.17
2022-08-17T21:18:25.955Z,22.10
2022-08-17T21:21:37.084Z,23.30
2022-08-17T21:24:15.550Z,23.48
2022-08-17T21:27:04.502Z,23.10
2022-08-17T21:29:33.961Z,22.45
2022-08-17T21:32:03.821Z,22.40
2022-08-17T21:35:07.158Z,23.70
2022-08-17T21:37:58.515Z,22.95
2022-08-17T21:40:30.136Z,22.45
2022-08-17T21:42:59.271Z,26.00
2022-08-17T21:45:38.063Z,24.80
2022-08-17T21:48:19.749Z,25.67
2022-08-17T21:50:59.151Z,26.50
2022-08-17T21:53:33.657Z,25.55
2022-08-17T21:56:00.763Z,25.85
2022-08-17T21:58:31.106Z,25.53
2022-08-17T22:01:31.861Z,26.92
2022-08-17T22:04:17.843Z,27.67
2022-08-17T22:06:52.535Z,24.83
2022-08-17T22:09:40.408Z,26.63
2022-08-17T22:12:20.576Z,26.47
2022-08-17T22:14:57.276Z,27.33
2022-08-17T22:17:29.761Z,27.73
2022-08-17T22:20:16.838Z,26.98
2022-08-17T22:23:04.867Z,26.55
2022-08-17T22:25:35.953Z,28.27
2022-08-17T22:28:45.536Z,27.60
2022-08-17T22:31:15.886Z,26.05
2022-08-17T22:33:44.554Z,26.67
2022-08-17T22:36:34.499Z,25.50
2022-08-17T22:39:22.578Z,24.87
2022-08-17T22:41:59.369Z,25.17
2022-08-17T22:44:37.822Z,24.35
2022-08-17T22:47:29.350Z,22.50
2022-08-17T22:50:00.238Z,21.58
2022-08-17T22:52:32.232Z,22.60
2022-08-17T22:55:36.082Z,22.13
2022-08-17T22:58:29.875Z,20.88
2022-08-17T23:00:56.611Z,21.08
2022-08-17T23:03:25.824Z,22.63
2022-08-17T23:06:08.138Z,21.13
2022-08-17T23:08:54.912Z,21.38
2022-08-17T23:11:36.533Z,19.80
2022-08-17T23:14:15.601Z,19.83
2022-08-17T23:16:42.979Z,20.42
2022-08-17T23:19:11.629Z,19.87
2022-08-17T23:21:38.688Z,19.33
2022-08-17T23:24:07.807Z,20.27
2022-08-17T23:26:38.003Z,20.02
2022-08-17T23:29:08.951Z,20.95
2022-08-17T23:31:37.297Z,19.77
2022-08-17T23:34:05.951Z,20.17
2022-08-17T23:36:36.051Z,20.58
2022-08-17T23:39:04.323Z,21.15
2022-08-17T23:41:35.929Z,21.45
2022-08-17T23:44:05.562Z,20.73
2022-08-17T23:46:32.840Z,20.35
2022-08-17T23:48:59.572Z,22.02
2022-08-17T23:51:34.588Z,20.95
2022-08-17T23:54:09.331Z,21.13
2022-08-17T23:56:44.408Z,19.53
2022-08-17T23:59:12.884Z,19.90
